Terminal Aerodrome Forecast
Issued by NWS Charleston, WV

Current Version | Previous Version | Text Only | Print | Product List | Glossary Off
Versions: 1 2 3 4 5 6 7 8 9 10 11 12 13 14 15 16 17 18 19 20 21

000
FTUS41 KRLX 221724
TAFPKB
TAF
KPKB 221724Z 2218/2318 33006KT P6SM -SHRA SCT060
     FM230000 35005KT P6SM SCT050
     FM230900 VRB03KT 6SM BR SCT250=

USA.gov is the U.S. government's official web portal to all federal, state and local government web resources and services.